createdAt,value
2023-01-12T00:00:17.351Z,44.95
2023-01-12T00:00:49.634Z,45.07
2023-01-12T00:01:24.726Z,45.20
2023-01-12T00:01:57.030Z,44.77
2023-01-12T00:02:32.084Z,44.79
2023-01-12T00:03:04.523Z,45.22
2023-01-12T00:03:36.775Z,44.94
2023-01-12T00:04:11.970Z,45.07
2023-01-12T00:04:47.047Z,45.23
2023-01-12T00:05:19.284Z,44.86
2023-01-12T00:05:51.496Z,45.06
2023-01-12T00:06:26.979Z,44.84
2023-01-12T00:06:59.278Z,45.32
2023-01-12T00:07:34.150Z,45.09
2023-01-12T00:08:06.495Z,44.98
2023-01-12T00:08:39.001Z,45.10
2023-01-12T00:09:16.453Z,45.13
2023-01-12T00:09:49.167Z,45.06
2023-01-12T00:10:21.491Z,45.05
2023-01-12T00:10:58.464Z,44.87
2023-01-12T00:11:31.178Z,44.99
2023-01-12T00:12:06.158Z,45.29
2023-01-12T00:12:41.116Z,45.32
2023-01-12T00:13:13.416Z,45.12
2023-01-12T00:13:45.979Z,45.11
2023-01-12T00:14:18.287Z,45.30
2023-01-12T00:14:53.304Z,45.12
2023-01-12T00:15:56.541Z,45.24
2023-01-12T00:16:38.148Z,45.38
2023-01-12T00:17:16.961Z,45.07
2023-01-12T00:17:49.283Z,45.29
2023-01-12T00:18:21.519Z,45.01
2023-01-12T00:18:53.769Z,45.42
2023-01-12T00:19:28.669Z,45.40
2023-01-12T00:20:00.919Z,45.44
2023-01-12T00:20:33.240Z,45.06
2023-01-12T00:21:08.432Z,45.23
2023-01-12T00:21:50.204Z,45.13
2023-01-12T00:22:25.022Z,45.30
2023-01-12T00:22:58.406Z,45.52
2023-01-12T00:23:30.624Z,45.22
2023-01-12T00:24:02.888Z,45.20
2023-01-12T00:24:41.383Z,45.37
2023-01-12T00:25:13.796Z,45.58
2023-01-12T00:25:50.936Z,45.28
2023-01-12T00:26:23.214Z,45.50
2023-01-12T00:26:58.981Z,45.13
2023-01-12T00:27:31.211Z,45.22
2023-01-12T00:28:03.529Z,45.18
2023-01-12T00:28:36.089Z,45.42
2023-01-12T00:29:10.903Z,45.58
2023-01-12T00:29:43.158Z,45.61
2023-01-12T00:30:18.230Z,45.38
2023-01-12T00:30:50.483Z,45.16
2023-01-12T00:31:22.810Z,45.45
2023-01-12T00:31:56.369Z,45.43
2023-01-12T00:32:31.223Z,45.29
2023-01-12T00:33:03.643Z,45.50
2023-01-12T00:33:35.962Z,45.51
2023-01-12T00:34:08.462Z,45.15
2023-01-12T00:34:43.348Z,45.47
2023-01-12T00:35:17.376Z,45.06
2023-01-12T00:35:49.605Z,45.23
2023-01-12T00:36:24.619Z,45.13
2023-01-12T00:36:56.977Z,45.34
2023-01-12T00:37:29.213Z,45.42
2023-01-12T00:38:06.425Z,45.09
2023-01-12T00:38:38.788Z,45.14
2023-01-12T00:39:11.110Z,44.96
2023-01-12T00:40:01.572Z,45.15
2023-01-12T00:40:36.368Z,45.12
2023-01-12T00:41:09.643Z,45.17
2023-01-12T00:41:57.052Z,45.02
2023-01-12T00:42:44.286Z,45.08
2023-01-12T00:43:31.533Z,45.15
2023-01-12T00:44:18.918Z,45.47
2023-01-12T00:45:06.142Z,45.30
2023-01-12T00:45:40.992Z,45.37
2023-01-12T00:46:13.317Z,44.94
2023-01-12T00:46:45.987Z,45.42
2023-01-12T00:47:21.576Z,45.38
2023-01-12T00:47:53.906Z,45.35
2023-01-12T00:48:26.230Z,45.41
2023-01-12T00:48:58.551Z,45.24
2023-01-12T00:49:33.374Z,45.16
2023-01-12T00:50:06.266Z,45.43
2023-01-12T00:50:41.135Z,45.45
2023-01-12T00:51:13.370Z,45.38
2023-01-12T00:51:45.636Z,45.13
2023-01-12T00:52:30.826Z,45.27
2023-01-12T00:53:03.815Z,45.31
2023-01-12T00:53:36.297Z,44.99
2023-01-12T00:54:11.204Z,44.99
2023-01-12T00:54:46.139Z,44.92
2023-01-12T00:55:21.112Z,45.35
2023-01-12T00:55:53.333Z,45.02
2023-01-12T00:56:25.590Z,45.37
2023-01-12T00:56:57.853Z,45.04
2023-01-12T00:57:32.673Z,45.41
2023-01-12T00:58:05.181Z,44.92
2023-01-12T00:58:37.443Z,45.08
2023-01-12T00:59:09.675Z,44.95
2023-01-12T00:59:44.811Z,45.40
2023-01-12T01:00:18.011Z,45.11
2023-01-12T01:00:50.360Z,44.98
2023-01-12T01:01:25.443Z,44.96
2023-01-12T01:01:57.760Z,45.30
2023-01-12T01:02:32.641Z,45.46
2023-01-12T01:03:04.951Z,45.01
2023-01-12T01:03:37.284Z,44.90
2023-01-12T01:04:09.584Z,44.96
2023-01-12T01:04:44.407Z,45.41
2023-01-12T01:05:17.949Z,45.25
2023-01-12T01:05:50.213Z,45.27
2023-01-12T01:06:25.364Z,44.97
2023-01-12T01:06:57.586Z,45.42
2023-01-12T01:07:32.431Z,44.96
2023-01-12T01:08:04.987Z,45.21
2023-01-12T01:08:37.919Z,45.19
2023-01-12T01:09:10.253Z,45.00
2023-01-12T01:09:45.208Z,45.47
2023-01-12T01:10:20.308Z,45.21
2023-01-12T01:11:01.540Z,45.11
2023-01-12T01:11:36.576Z,45.37
2023-01-12T01:12:08.803Z,45.43
2023-01-12T01:12:41.075Z,44.94
2023-01-12T01:13:15.880Z,45.22
2023-01-12T01:13:49.244Z,44.99
2023-01-12T01:14:24.096Z,44.94
2023-01-12T01:14:56.350Z,45.25
2023-01-12T01:15:28.575Z,45.01
2023-01-12T01:16:01.058Z,45.16
2023-01-12T01:16:36.403Z,45.05
2023-01-12T01:17:08.707Z,45.11
2023-01-12T01:17:43.615Z,45.20
2023-01-12T01:18:15.835Z,45.16
2023-01-12T01:18:48.105Z,45.37
2023-01-12T01:19:23.021Z,45.54
2023-01-12T01:19:55.243Z,45.35
2023-01-12T01:20:27.561Z,45.22
2023-01-12T01:20:59.828Z,45.22
2023-01-12T01:21:35.073Z,45.10
2023-01-12T01:22:07.300Z,45.35
2023-01-12T01:22:39.559Z,45.45
2023-01-12T01:23:14.376Z,45.54
2023-01-12T01:23:46.615Z,45.41
2023-01-12T01:24:21.446Z,45.32
2023-01-12T01:24:53.733Z,45.49
2023-01-12T01:25:28.564Z,45.45
2023-01-12T01:26:03.182Z,45.40
2023-01-12T01:26:37.998Z,45.61
2023-01-12T01:27:10.289Z,45.46
2023-01-12T01:27:42.567Z,45.45
2023-01-12T01:28:17.651Z,45.28
2023-01-12T01:28:50.866Z,45.47
2023-01-12T01:29:25.843Z,45.52
2023-01-12T01:29:58.137Z,45.46
2023-01-12T01:30:30.420Z,45.25
2023-01-12T01:31:06.240Z,45.40
2023-01-12T01:31:41.099Z,45.33
2023-01-12T01:32:13.397Z,45.31
2023-01-12T01:32:45.603Z,45.54
2023-01-12T01:33:17.818Z,45.54
2023-01-12T01:33:53.455Z,45.39
2023-01-12T01:34:25.732Z,45.41
2023-01-12T01:34:57.980Z,45.27
2023-01-12T01:35:32.808Z,45.40
2023-01-12T01:36:05.320Z,45.14
2023-01-12T01:36:37.538Z,45.33
2023-01-12T01:37:13.109Z,45.09
2023-01-12T01:37:45.326Z,45.54
2023-01-12T01:38:17.739Z,45.01
2023-01-12T01:38:53.383Z,45.22
2023-01-12T01:39:25.632Z,45.00
2023-01-12T01:39:57.880Z,45.16
2023-01-12T01:40:35.955Z,45.54
2023-01-12T01:41:08.183Z,45.06
2023-01-12T01:41:42.783Z,45.34
2023-01-12T01:42:28.340Z,45.08
2023-01-12T01:43:00.797Z,45.36
2023-01-12T01:43:49.823Z,45.30
2023-01-12T01:44:53.581Z,45.20
2023-01-12T01:45:26.091Z,45.16
2023-01-12T01:46:02.138Z,45.22
2023-01-12T01:46:41.810Z,45.26
2023-01-12T01:47:20.139Z,45.03
2023-01-12T01:47:58.340Z,45.42
2023-01-12T01:48:33.005Z,45.38
2023-01-12T01:49:28.656Z,45.32
2023-01-12T01:50:07.692Z,45.34
2023-01-12T01:50:42.579Z,45.15
2023-01-12T01:51:15.990Z,45.28
2023-01-12T01:51:50.901Z,45.09
2023-01-12T01:52:26.411Z,45.09
2023-01-12T01:53:03.845Z,45.06
2023-01-12T01:53:38.635Z,45.60
2023-01-12T01:54:11.194Z,45.12
2023-01-12T01:54:49.218Z,45.07
2023-01-12T01:55:23.096Z,45.15
2023-01-12T01:56:01.968Z,45.01
2023-01-12T01:56:37.503Z,45.45
2023-01-12T01:57:10.234Z,45.44
2023-01-12T01:57:48.859Z,44.99
2023-01-12T01:58:27.164Z,45.24
2023-01-12T01:59:02.384Z,45.34
2023-01-12T01:59:36.635Z,45.19
2023-01-12T02:00:14.246Z,45.25
2023-01-12T02:00:46.797Z,45.04
2023-01-12T02:01:19.143Z,45.52
2023-01-12T02:01:54.305Z,45.25
2023-01-12T02:02:27.124Z,45.46
2023-01-12T02:03:00.548Z,45.19
2023-01-12T02:03:36.948Z,45.20
2023-01-12T02:04:09.415Z,45.42
2023-01-12T02:04:41.833Z,45.50
2023-01-12T02:05:17.056Z,45.04
2023-01-12T02:05:49.561Z,45.30
2023-01-12T02:06:23.607Z,45.05
2023-01-12T02:06:59.453Z,45.12
2023-01-12T02:07:31.992Z,45.40
2023-01-12T02:08:13.659Z,45.23
2023-01-12T02:08:48.640Z,45.07
2023-01-12T02:09:23.018Z,45.44
2023-01-12T02:09:57.896Z,45.16
2023-01-12T02:10:30.158Z,45.09
2023-01-12T02:11:28.223Z,45.12
2023-01-12T02:12:15.542Z,45.11
2023-01-12T02:13:02.883Z,45.26
2023-01-12T02:13:50.198Z,45.50
2023-01-12T02:14:37.471Z,45.47
2023-01-12T02:15:25.374Z,45.09
2023-01-12T02:16:16.096Z,45.40
2023-01-12T02:17:01.169Z,45.50
2023-01-12T02:17:42.064Z,45.23
2023-01-12T02:18:21.268Z,45.34
2023-01-12T02:19:10.715Z,45.45
2023-01-12T02:20:18.428Z,45.57
2023-01-12T02:21:00.163Z,45.11
2023-01-12T02:21:54.949Z,45.42
2023-01-12T02:23:03.211Z,45.12
2023-01-12T02:24:07.031Z,45.13
2023-01-12T02:25:16.203Z,45.10
2023-01-12T02:26:16.696Z,45.23
2023-01-12T02:27:14.400Z,45.59
2023-01-12T02:28:11.728Z,45.40
2023-01-12T02:29:12.603Z,45.16
2023-01-12T02:30:14.751Z,45.10
2023-01-12T02:31:10.279Z,45.14
2023-01-12T02:31:52.568Z,45.57
2023-01-12T02:32:31.924Z,45.40
2023-01-12T02:33:13.669Z,45.47
2023-01-12T02:33:54.251Z,45.55
2023-01-12T02:34:34.046Z,45.23
2023-01-12T02:35:12.957Z,45.16
2023-01-12T02:35:53.894Z,45.54
2023-01-12T02:36:32.151Z,45.37
2023-01-12T02:37:12.861Z,45.35
2023-01-12T02:37:51.515Z,45.24
2023-01-12T02:38:29.132Z,45.61
2023-01-12T02:39:05.334Z,45.45
2023-01-12T02:39:46.385Z,45.30
2023-01-12T02:40:22.859Z,45.48
2023-01-12T02:41:00.324Z,45.48
2023-01-12T02:41:51.883Z,45.32
2023-01-12T02:42:45.062Z,45.34
2023-01-12T02:43:22.422Z,45.72
2023-01-12T02:43:54.931Z,45.53
2023-01-12T02:44:30.122Z,45.59
2023-01-12T02:45:09.566Z,45.61
2023-01-12T02:45:49.669Z,45.37
2023-01-12T02:46:28.088Z,45.59
2023-01-12T02:47:02.126Z,45.40
2023-01-12T02:47:41.419Z,45.42
2023-01-12T02:48:16.794Z,45.21
2023-01-12T02:48:52.100Z,45.19
2023-01-12T02:49:30.304Z,45.60
2023-01-12T02:50:04.544Z,45.18
2023-01-12T02:50:56.043Z,45.26
2023-01-12T02:51:33.485Z,45.52
2023-01-12T02:52:09.289Z,45.50
2023-01-12T02:52:47.396Z,45.42
2023-01-12T02:53:24.408Z,45.33
2023-01-12T02:54:02.725Z,45.42
2023-01-12T02:54:36.561Z,45.39
2023-01-12T02:55:09.973Z,45.19
2023-01-12T02:55:45.007Z,45.28
2023-01-12T02:56:22.654Z,45.11
2023-01-12T02:56:57.043Z,45.18
2023-01-12T02:57:33.166Z,45.24
2023-01-12T02:58:07.664Z,44.99
2023-01-12T02:58:44.274Z,45.38
2023-01-12T02:59:21.615Z,45.09
2023-01-12T02:59:54.933Z,45.13
2023-01-12T03:00:27.303Z,45.14
2023-01-12T03:01:02.860Z,45.45
2023-01-12T03:01:38.204Z,45.47
2023-01-12T03:02:12.133Z,45.59
2023-01-12T03:02:47.092Z,45.11
2023-01-12T03:03:19.981Z,45.38
2023-01-12T03:03:53.660Z,45.28
2023-01-12T03:04:30.239Z,45.43
2023-01-12T03:05:02.985Z,45.28
2023-01-12T03:05:35.202Z,45.40
2023-01-12T03:06:11.012Z,45.52
2023-01-12T03:06:45.795Z,45.21
2023-01-12T03:07:38.020Z,45.45
2023-01-12T03:08:15.309Z,45.18
2023-01-12T03:08:49.830Z,45.23
2023-01-12T03:09:23.203Z,45.44
2023-01-12T03:10:01.461Z,45.42
2023-01-12T03:11:00.337Z,45.27
2023-01-12T03:11:35.238Z,45.07
2023-01-12T03:12:10.767Z,45.12
2023-01-12T03:12:44.284Z,45.11
2023-01-12T03:13:19.535Z,45.50
2023-01-12T03:13:54.951Z,45.30
2023-01-12T03:14:27.558Z,45.48
2023-01-12T03:15:05.375Z,45.06
2023-01-12T03:15:40.245Z,45.45
2023-01-12T03:16:16.666Z,45.38
2023-01-12T03:16:51.960Z,45.37
2023-01-12T03:17:26.553Z,45.00
2023-01-12T03:18:04.975Z,45.48
2023-01-12T03:18:39.406Z,45.35
2023-01-12T03:19:19.412Z,45.42
2023-01-12T03:19:53.363Z,45.42
2023-01-12T03:20:28.600Z,45.01
2023-01-12T03:21:07.995Z,44.97
2023-01-12T03:21:43.068Z,45.40
2023-01-12T03:22:15.745Z,45.28
2023-01-12T03:22:52.100Z,45.21
2023-01-12T03:23:27.994Z,45.22
2023-01-12T03:24:05.850Z,45.00
2023-01-12T03:24:41.187Z,45.38
2023-01-12T03:25:15.849Z,45.07
2023-01-12T03:25:52.071Z,45.26
2023-01-12T03:26:27.949Z,45.56
2023-01-12T03:27:03.101Z,45.09
2023-01-12T03:27:41.212Z,45.49
2023-01-12T03:28:15.101Z,45.13
2023-01-12T03:28:50.792Z,45.11
2023-01-12T03:29:30.105Z,45.40
2023-01-12T03:30:06.268Z,45.06
2023-01-12T03:30:40.670Z,45.52
2023-01-12T03:31:16.371Z,45.54
2023-01-12T03:31:51.299Z,45.28
2023-01-12T03:32:23.712Z,45.66
2023-01-12T03:32:56.178Z,45.19
2023-01-12T03:33:31.195Z,45.60
2023-01-12T03:34:03.510Z,45.57
2023-01-12T03:34:36.792Z,45.60
2023-01-12T03:35:09.634Z,45.62
2023-01-12T03:35:54.556Z,45.21
2023-01-12T03:36:34.066Z,45.47
2023-01-12T03:37:12.773Z,45.66
2023-01-12T03:37:48.458Z,45.40
2023-01-12T03:38:25.330Z,45.66
2023-01-12T03:39:05.992Z,45.78
2023-01-12T03:39:42.675Z,45.71
2023-01-12T03:40:19.444Z,45.45
2023-01-12T03:41:02.566Z,45.46
2023-01-12T03:41:40.836Z,45.71
2023-01-12T03:42:20.547Z,45.23
2023-01-12T03:42:56.867Z,45.64
2023-01-12T03:43:31.934Z,45.35
2023-01-12T03:44:08.522Z,45.30
2023-01-12T03:44:46.787Z,45.44
2023-01-12T03:45:24.116Z,45.19
2023-01-12T03:46:02.184Z,45.61
2023-01-12T03:46:36.955Z,45.26
2023-01-12T03:47:14.242Z,45.54
2023-01-12T03:47:50.838Z,45.41
2023-01-12T03:48:26.226Z,45.61
2023-01-12T03:49:02.510Z,45.26
2023-01-12T03:49:41.022Z,45.33
2023-01-12T03:50:15.398Z,45.18
2023-01-12T03:50:49.788Z,45.71
2023-01-12T03:51:28.222Z,45.81
2023-01-12T03:52:01.896Z,45.44
2023-01-12T03:52:35.506Z,45.75
2023-01-12T03:53:11.277Z,45.35
2023-01-12T03:53:44.778Z,45.65
2023-01-12T03:54:17.818Z,45.35
2023-01-12T03:54:53.026Z,45.81
2023-01-12T03:55:28.539Z,45.77
2023-01-12T03:56:04.122Z,45.32
2023-01-12T03:56:39.457Z,45.27
2023-01-12T03:57:12.416Z,45.25
2023-01-12T03:57:45.343Z,45.52
2023-01-12T03:58:20.667Z,45.69
2023-01-12T03:58:53.302Z,45.64
2023-01-12T03:59:25.576Z,45.28
2023-01-12T04:00:00.704Z,45.59
2023-01-12T04:00:33.026Z,45.76
2023-01-12T04:01:06.431Z,45.80
2023-01-12T04:01:42.105Z,45.75
2023-01-12T04:02:17.110Z,45.71
2023-01-12T04:02:49.334Z,45.37
2023-01-12T04:03:25.836Z,45.77
2023-01-12T04:03:58.160Z,45.66
2023-01-12T04:04:30.411Z,45.33
2023-01-12T04:05:05.253Z,45.72
2023-01-12T04:05:38.037Z,45.76
2023-01-12T04:06:10.345Z,45.65
2023-01-12T04:06:45.174Z,45.41
2023-01-12T04:07:17.569Z,45.43
2023-01-12T04:07:49.794Z,45.73
2023-01-12T04:08:24.844Z,45.75
2023-01-12T04:08:57.074Z,45.45
2023-01-12T04:09:29.304Z,45.46
2023-01-12T04:10:04.137Z,45.35
2023-01-12T04:10:36.556Z,45.47
2023-01-12T04:11:23.700Z,45.45
2023-01-12T04:12:11.016Z,45.69
2023-01-12T04:12:45.978Z,45.29
2023-01-12T04:13:18.234Z,45.28
2023-01-12T04:13:50.460Z,45.38
2023-01-12T04:14:22.704Z,45.60
2023-01-12T04:14:57.523Z,45.49
2023-01-12T04:15:29.783Z,45.34
2023-01-12T04:16:02.033Z,45.37
2023-01-12T04:16:36.966Z,45.37
2023-01-12T04:17:10.824Z,45.10
2023-01-12T04:17:45.667Z,45.42
2023-01-12T04:18:20.695Z,45.19
2023-01-12T04:18:52.922Z,45.46
2023-01-12T04:19:25.153Z,45.63
2023-01-12T04:19:57.499Z,45.53
2023-01-12T04:20:33.060Z,45.66
2023-01-12T04:21:05.807Z,45.28
2023-01-12T04:21:53.033Z,45.36
2023-01-12T04:22:40.247Z,45.54
2023-01-12T04:23:12.500Z,45.78
2023-01-12T04:23:45.277Z,45.48
2023-01-12T04:24:17.499Z,45.40
2023-01-12T04:24:52.533Z,45.49
2023-01-12T04:25:24.805Z,45.41
2023-01-12T04:25:57.027Z,45.71
2023-01-12T04:26:29.350Z,45.68
2023-01-12T04:27:04.188Z,45.66
2023-01-12T04:27:36.491Z,45.43
2023-01-12T04:28:11.363Z,45.69
2023-01-12T04:28:43.586Z,45.25
2023-01-12T04:29:15.797Z,45.61
2023-01-12T04:29:50.651Z,45.26
2023-01-12T04:30:27.155Z,45.23
2023-01-12T04:30:59.378Z,45.33
2023-01-12T04:31:34.230Z,45.49
2023-01-12T04:32:06.700Z,45.49
2023-01-12T04:32:39.048Z,45.35
2023-01-12T04:33:16.489Z,45.22
2023-01-12T04:33:48.815Z,45.46
2023-01-12T04:34:21.101Z,45.51
2023-01-12T04:34:55.954Z,45.23
2023-01-12T04:35:28.239Z,45.40
2023-01-12T04:36:00.488Z,45.05
2023-01-12T04:36:35.308Z,45.23
2023-01-12T04:37:07.526Z,45.23
2023-01-12T04:37:39.794Z,45.34
2023-01-12T04:38:16.876Z,45.05
2023-01-12T04:38:49.293Z,45.51
2023-01-12T04:39:21.510Z,45.46
2023-01-12T04:39:56.619Z,45.12
2023-01-12T04:40:28.875Z,45.06
2023-01-12T04:41:01.133Z,45.30
2023-01-12T04:41:35.961Z,45.38
2023-01-12T04:42:29.175Z,45.28
2023-01-12T04:43:01.506Z,45.05
2023-01-12T04:43:33.938Z,45.09
2023-01-12T04:44:08.829Z,45.49
2023-01-12T04:44:41.060Z,45.11
2023-01-12T04:45:13.356Z,45.30
2023-01-12T04:45:48.206Z,45.40
2023-01-12T04:46:20.482Z,45.25
2023-01-12T04:46:52.715Z,45.08
2023-01-12T04:47:27.551Z,45.24
2023-01-12T04:48:02.963Z,45.07
2023-01-12T04:48:43.691Z,45.12
2023-01-12T04:49:16.000Z,45.11
2023-01-12T04:49:48.223Z,45.18
2023-01-12T04:50:23.045Z,45.02
2023-01-12T04:50:55.284Z,45.02
2023-01-12T04:51:30.150Z,44.92
2023-01-12T04:52:02.358Z,44.90
2023-01-12T04:52:35.075Z,44.90
2023-01-12T04:53:08.582Z,45.01
2023-01-12T04:53:43.540Z,45.30
2023-01-12T04:54:15.940Z,45.25
2023-01-12T04:54:48.194Z,45.04
2023-01-12T04:55:23.008Z,44.98
2023-01-12T04:55:55.287Z,45.09
2023-01-12T04:56:27.552Z,45.07
2023-01-12T04:57:02.408Z,44.84
2023-01-12T04:57:34.635Z,45.12
2023-01-12T04:58:07.013Z,45.32
2023-01-12T04:58:42.354Z,45.09
2023-01-12T04:59:14.585Z,44.84
2023-01-12T04:59:46.859Z,45.01
2023-01-12T05:00:22.811Z,45.08
2023-01-12T05:00:55.052Z,44.93
2023-01-12T05:01:28.565Z,45.07
2023-01-12T05:02:03.583Z,45.08
2023-01-12T05:02:35.832Z,45.10
2023-01-12T05:03:10.315Z,45.12
2023-01-12T05:03:48.341Z,45.22
2023-01-12T05:04:20.713Z,44.76
2023-01-12T05:04:53.011Z,45.14
2023-01-12T05:05:27.966Z,45.12
2023-01-12T05:06:02.074Z,44.88
2023-01-12T05:06:34.322Z,44.89
2023-01-12T05:07:09.271Z,45.04
2023-01-12T05:08:02.231Z,44.79
2023-01-12T05:08:49.695Z,45.08
2023-01-12T05:09:36.934Z,44.87
2023-01-12T05:10:22.762Z,45.15
2023-01-12T05:10:56.579Z,45.14
2023-01-12T05:11:32.282Z,44.73
2023-01-12T05:12:05.268Z,44.71
2023-01-12T05:12:37.508Z,44.82
2023-01-12T05:13:09.750Z,44.94
2023-01-12T05:13:44.619Z,45.06
2023-01-12T05:14:16.841Z,44.79
2023-01-12T05:14:49.650Z,44.79
2023-01-12T05:15:24.508Z,44.83
2023-01-12T05:15:57.753Z,44.83
2023-01-12T05:16:30.136Z,44.86
2023-01-12T05:17:05.117Z,45.06
2023-01-12T05:17:37.378Z,44.98
2023-01-12T05:18:09.696Z,44.67
2023-01-12T05:18:47.715Z,44.94
2023-01-12T05:19:19.976Z,45.16
2023-01-12T05:19:54.843Z,44.98
2023-01-12T05:20:27.159Z,44.73
2023-01-12T05:20:59.380Z,45.12
2023-01-12T05:21:34.205Z,44.65
2023-01-12T05:22:06.468Z,44.60
2023-01-12T05:22:38.696Z,44.84
2023-01-12T05:23:13.530Z,45.08
2023-01-12T05:23:46.202Z,44.58
2023-01-12T05:24:18.650Z,44.82
2023-01-12T05:24:53.475Z,44.80
2023-01-12T05:25:26.927Z,44.53
2023-01-12T05:26:00.547Z,44.78
2023-01-12T05:26:35.438Z,44.62
2023-01-12T05:27:07.677Z,44.55
2023-01-12T05:27:39.896Z,44.58
2023-01-12T05:28:14.710Z,44.92
2023-01-12T05:28:48.870Z,44.60
2023-01-12T05:29:21.126Z,44.86
2023-01-12T05:29:57.188Z,44.54
2023-01-12T05:30:31.697Z,44.81
2023-01-12T05:31:06.242Z,44.99
2023-01-12T05:31:41.109Z,45.01
2023-01-12T05:32:13.415Z,44.90
2023-01-12T05:32:45.999Z,44.60
2023-01-12T05:33:19.489Z,44.88
2023-01-12T05:33:57.062Z,44.83
2023-01-12T05:34:29.308Z,45.04
2023-01-12T05:35:01.535Z,44.64
2023-01-12T05:35:33.802Z,44.84
2023-01-12T05:36:09.881Z,44.74
2023-01-12T05:36:42.087Z,44.99
2023-01-12T05:37:14.358Z,44.91
2023-01-12T05:37:49.657Z,44.92
2023-01-12T05:38:21.892Z,44.60
2023-01-12T05:38:54.131Z,44.63
2023-01-12T05:39:28.992Z,45.10
2023-01-12T05:40:01.594Z,44.88
2023-01-12T05:40:33.831Z,44.66
2023-01-12T05:41:10.346Z,44.94
2023-01-12T05:42:03.063Z,44.61
2023-01-12T05:42:50.291Z,44.88
2023-01-12T05:43:37.522Z,44.63
2023-01-12T05:44:09.866Z,44.79
2023-01-12T05:44:42.087Z,44.63
2023-01-12T05:45:16.959Z,44.91
2023-01-12T05:45:49.219Z,44.73
2023-01-12T05:46:23.096Z,44.75
2023-01-12T05:46:57.988Z,44.67
2023-01-12T05:47:30.200Z,44.92
2023-01-12T05:48:02.465Z,44.60
2023-01-12T05:48:37.388Z,44.58
2023-01-12T05:49:12.375Z,44.60
2023-01-12T05:49:44.611Z,44.72
2023-01-12T05:50:19.447Z,44.90
2023-01-12T05:51:12.607Z,44.80
2023-01-12T05:51:47.475Z,44.72
2023-01-12T05:52:19.977Z,44.60
2023-01-12T05:52:55.063Z,44.80
2023-01-12T05:53:27.298Z,44.93
2023-01-12T05:53:59.516Z,44.58
2023-01-12T05:54:34.445Z,45.01
2023-01-12T05:55:07.694Z,44.53
2023-01-12T05:55:39.980Z,44.65
2023-01-12T05:56:19.808Z,44.86
2023-01-12T05:56:52.085Z,44.79
2023-01-12T05:57:24.311Z,44.66
2023-01-12T05:57:59.140Z,44.91
2023-01-12T05:58:31.385Z,44.92
2023-01-12T05:59:04.579Z,44.75
2023-01-12T05:59:39.412Z,44.92
2023-01-12T06:00:12.930Z,44.66
2023-01-12T06:00:45.633Z,44.89
2023-01-12T06:01:20.555Z,44.58
2023-01-12T06:01:53.429Z,44.67
2023-01-12T06:02:25.848Z,44.61
2023-01-12T06:03:00.755Z,44.70
2023-01-12T06:03:33.027Z,44.75
2023-01-12T06:04:05.473Z,44.75
2023-01-12T06:04:43.001Z,44.90
2023-01-12T06:05:15.354Z,45.04
2023-01-12T06:05:53.288Z,45.00
2023-01-12T06:06:31.445Z,44.81
2023-01-12T06:07:03.820Z,44.94
2023-01-12T06:07:36.191Z,44.83
2023-01-12T06:08:11.253Z,44.67
2023-01-12T06:08:43.502Z,45.00
2023-01-12T06:09:18.327Z,44.72
2023-01-12T06:09:50.550Z,44.99
2023-01-12T06:10:22.788Z,44.88
2023-01-12T06:10:57.624Z,44.64
2023-01-12T06:11:45.173Z,44.77
2023-01-12T06:12:32.379Z,44.53
2023-01-12T06:13:19.594Z,44.48
2023-01-12T06:13:58.042Z,44.90
2023-01-12T06:14:30.936Z,44.63
2023-01-12T06:15:05.887Z,44.56
2023-01-12T06:15:38.167Z,44.56
2023-01-12T06:16:13.053Z,44.90
2023-01-12T06:16:45.541Z,44.97
2023-01-12T06:17:17.808Z,45.03
2023-01-12T06:17:52.643Z,44.51
2023-01-12T06:18:24.878Z,44.44
2023-01-12T06:18:59.839Z,44.55
2023-01-12T06:19:32.129Z,44.55
2023-01-12T06:20:08.989Z,44.95
2023-01-12T06:20:43.806Z,44.88
2023-01-12T06:21:16.190Z,44.48
2023-01-12T06:21:48.478Z,44.79
2023-01-12T06:22:23.333Z,44.92
2023-01-12T06:22:55.655Z,44.78
2023-01-12T06:23:35.148Z,44.93
2023-01-12T06:24:11.458Z,44.73
2023-01-12T06:24:46.070Z,44.42
2023-01-12T06:25:18.392Z,44.82
2023-01-12T06:25:53.258Z,44.73
2023-01-12T06:26:25.511Z,44.56
2023-01-12T06:27:00.440Z,44.82
2023-01-12T06:27:35.427Z,44.63
2023-01-12T06:28:10.279Z,44.39
2023-01-12T06:28:43.045Z,44.48
2023-01-12T06:29:15.329Z,44.92
2023-01-12T06:29:50.795Z,44.83
2023-01-12T06:30:23.130Z,44.43
2023-01-12T06:30:56.867Z,44.72
2023-01-12T06:31:31.764Z,44.55
2023-01-12T06:32:04.440Z,44.80
2023-01-12T06:32:41.644Z,44.72
2023-01-12T06:33:14.580Z,44.39
2023-01-12T06:33:49.640Z,44.38
2023-01-12T06:34:21.861Z,44.39
2023-01-12T06:34:54.124Z,44.68
2023-01-12T06:35:31.547Z,44.81
2023-01-12T06:36:04.661Z,44.70
2023-01-12T06:36:36.938Z,44.46
2023-01-12T06:37:13.188Z,44.67
2023-01-12T06:37:45.533Z,44.61
2023-01-12T06:38:19.034Z,44.66
2023-01-12T06:38:53.986Z,44.57
2023-01-12T06:39:26.217Z,44.63
2023-01-12T06:39:58.485Z,44.29
2023-01-12T06:40:33.344Z,44.53
2023-01-12T06:41:07.713Z,44.53
2023-01-12T06:41:55.022Z,44.34
2023-01-12T06:42:30.020Z,44.38
2023-01-12T06:43:04.870Z,44.33
2023-01-12T06:43:37.183Z,44.74
2023-01-12T06:44:09.397Z,44.31
2023-01-12T06:44:44.233Z,44.43
2023-01-12T06:45:16.622Z,44.71
2023-01-12T06:45:51.457Z,44.58
2023-01-12T06:46:23.751Z,44.29
2023-01-12T06:46:55.982Z,44.50
2023-01-12T06:47:31.596Z,44.75
2023-01-12T06:48:04.551Z,44.47
2023-01-12T06:48:38.965Z,44.48
2023-01-12T06:49:16.621Z,44.70
2023-01-12T06:49:51.635Z,44.67
2023-01-12T06:50:23.911Z,44.39
2023-01-12T06:51:05.140Z,44.65
2023-01-12T06:51:37.375Z,44.29
2023-01-12T06:52:09.644Z,44.29
2023-01-12T06:52:44.753Z,44.72
2023-01-12T06:53:17.006Z,44.36
2023-01-12T06:53:49.245Z,44.45
2023-01-12T06:54:24.074Z,44.42
2023-01-12T06:54:56.730Z,44.27
2023-01-12T06:55:29.517Z,44.42
2023-01-12T06:56:04.344Z,44.60
2023-01-12T06:56:36.563Z,44.69
2023-01-12T06:57:11.427Z,44.75
2023-01-12T06:57:43.699Z,44.74
2023-01-12T06:58:15.935Z,44.58
2023-01-12T06:58:50.828Z,44.28
2023-01-12T06:59:23.067Z,44.63
2023-01-12T06:59:56.530Z,44.67
2023-01-12T07:00:31.419Z,44.70
2023-01-12T07:01:04.564Z,44.41
2023-01-12T07:01:36.894Z,44.77
2023-01-12T07:02:14.747Z,44.31
2023-01-12T07:02:49.913Z,44.27
2023-01-12T07:03:22.126Z,44.61
2023-01-12T07:03:57.034Z,44.31
2023-01-12T07:04:29.307Z,44.30
2023-01-12T07:05:01.587Z,44.34
2023-01-12T07:05:36.447Z,44.33
2023-01-12T07:06:11.537Z,44.38
2023-01-12T07:06:43.816Z,44.26
2023-01-12T07:07:18.659Z,44.53
2023-01-12T07:07:57.632Z,44.53
2023-01-12T07:08:29.857Z,44.33
2023-01-12T07:09:06.207Z,44.68
2023-01-12T07:09:38.439Z,44.75
2023-01-12T07:10:11.826Z,44.75
2023-01-12T07:10:46.675Z,44.55
2023-01-12T07:11:19.009Z,44.43
2023-01-12T07:11:51.231Z,44.38
2023-01-12T07:12:26.077Z,44.36
2023-01-12T07:13:00.315Z,44.75
2023-01-12T07:13:32.527Z,44.77
2023-01-12T07:14:09.203Z,44.38
2023-01-12T07:14:41.625Z,44.44
2023-01-12T07:15:16.570Z,44.29
2023-01-12T07:15:48.890Z,44.71
2023-01-12T07:16:21.224Z,44.82
2023-01-12T07:16:56.063Z,44.31
2023-01-12T07:17:28.282Z,44.78
2023-01-12T07:18:00.545Z,44.82
2023-01-12T07:18:35.568Z,44.51
2023-01-12T07:19:07.919Z,44.73
2023-01-12T07:19:41.560Z,44.76
2023-01-12T07:20:16.583Z,44.91
2023-01-12T07:20:49.265Z,44.50
2023-01-12T07:21:24.210Z,44.61
2023-01-12T07:21:59.053Z,44.87
2023-01-12T07:22:31.284Z,44.92
2023-01-12T07:23:03.564Z,44.55
2023-01-12T07:23:42.130Z,44.47
2023-01-12T07:24:14.370Z,44.79
2023-01-12T07:24:46.585Z,44.81
2023-01-12T07:25:21.412Z,44.45
2023-01-12T07:25:53.644Z,44.72
2023-01-12T07:26:25.941Z,44.69
2023-01-12T07:27:01.538Z,44.84
2023-01-12T07:27:33.865Z,44.77
2023-01-12T07:28:06.107Z,44.77
2023-01-12T07:28:40.981Z,44.78
2023-01-12T07:29:13.191Z,44.41
2023-01-12T07:29:46.733Z,44.38
2023-01-12T07:30:21.834Z,44.43
2023-01-12T07:31:00.499Z,44.36
2023-01-12T07:31:35.371Z,44.38
2023-01-12T07:32:07.615Z,44.73
2023-01-12T07:32:42.481Z,44.78
2023-01-12T07:33:17.735Z,44.38
2023-01-12T07:33:55.228Z,44.66
2023-01-12T07:34:27.509Z,44.28
2023-01-12T07:34:59.730Z,44.75
2023-01-12T07:35:34.593Z,44.56
2023-01-12T07:36:07.305Z,44.55
2023-01-12T07:36:44.739Z,44.52
2023-01-12T07:37:16.958Z,44.75
2023-01-12T07:37:50.005Z,44.31